sensor_id;sensor_type;location;lat;lon;timestamp;P1;durP1;ratioP1;P2;durP2;ratioP2
43311;SDS011;30041;48.300;16.352;2023-07-20T00:00:44;4.07;;;3.08;;
43311;SDS011;30041;48.300;16.352;2023-07-20T00:03:11;4.95;;;3.17;;
43311;SDS011;30041;48.300;16.352;2023-07-20T00:05:37;5.03;;;3.28;;
43311;SDS011;30041;48.300;16.352;2023-07-20T00:08:03;4.85;;;3.50;;
43311;SDS011;30041;48.300;16.352;2023-07-20T00:10:28;5.15;;;3.30;;
43311;SDS011;30041;48.300;16.352;2023-07-20T00:12:54;5.00;;;3.30;;
43311;SDS011;30041;48.300;16.352;2023-07-20T00:15:19;5.95;;;3.60;;
43311;SDS011;30041;48.300;16.352;2023-07-20T00:17:45;6.18;;;3.42;;
43311;SDS011;30041;48.300;16.352;2023-07-20T00:20:10;6.15;;;3.45;;
43311;SDS011;30041;48.300;16.352;2023-07-20T00:22:36;5.95;;;3.55;;
43311;SDS011;30041;48.300;16.352;2023-07-20T00:25:02;4.72;;;3.13;;
43311;SDS011;30041;48.300;16.352;2023-07-20T00:27:27;4.20;;;2.80;;
43311;SDS011;30041;48.300;16.352;2023-07-20T00:29:53;4.95;;;3.45;;
43311;SDS011;30041;48.300;16.352;2023-07-20T00:32:18;4.85;;;3.33;;
43311;SDS011;30041;48.300;16.352;2023-07-20T00:34:44;5.85;;;3.58;;
43311;SDS011;30041;48.300;16.352;2023-07-20T00:37:09;3.85;;;3.10;;
43311;SDS011;30041;48.300;16.352;2023-07-20T00:39:35;4.57;;;3.40;;
43311;SDS011;30041;48.300;16.352;2023-07-20T00:42:00;3.92;;;3.28;;
43311;SDS011;30041;48.300;16.352;2023-07-20T00:44:26;4.90;;;2.92;;
43311;SDS011;30041;48.300;16.352;2023-07-20T00:46:51;4.07;;;3.10;;
43311;SDS011;30041;48.300;16.352;2023-07-20T00:49:19;5.97;;;3.17;;
43311;SDS011;30041;48.300;16.352;2023-07-20T00:51:45;4.65;;;3.38;;
43311;SDS011;30041;48.300;16.352;2023-07-20T00:54:11;4.07;;;3.35;;
43311;SDS011;30041;48.300;16.352;2023-07-20T00:56:36;4.38;;;3.25;;
43311;SDS011;30041;48.300;16.352;2023-07-20T00:59:02;4.47;;;3.10;;
43311;SDS011;30041;48.300;16.352;2023-07-20T01:01:28;5.53;;;3.38;;
43311;SDS011;30041;48.300;16.352;2023-07-20T01:03:53;4.63;;;3.53;;
43311;SDS011;30041;48.300;16.352;2023-07-20T01:06:31;6.07;;;3.10;;
43311;SDS011;30041;48.300;16.352;2023-07-20T01:09:12;5.88;;;3.42;;
43311;SDS011;30041;48.300;16.352;2023-07-20T01:11:43;5.50;;;3.45;;
43311;SDS011;30041;48.300;16.352;2023-07-20T01:14:19;5.97;;;3.38;;
43311;SDS011;30041;48.300;16.352;2023-07-20T01:16:45;7.00;;;3.47;;
43311;SDS011;30041;48.300;16.352;2023-07-20T01:19:12;4.28;;;3.22;;
43311;SDS011;30041;48.300;16.352;2023-07-20T01:21:40;6.20;;;3.65;;
43311;SDS011;30041;48.300;16.352;2023-07-20T01:32:19;4.68;;;3.50;;
43311;SDS011;30041;48.300;16.352;2023-07-20T01:34:48;5.38;;;3.55;;
43311;SDS011;30041;48.300;16.352;2023-07-20T01:37:24;4.15;;;2.95;;
43311;SDS011;30041;48.300;16.352;2023-07-20T01:39:52;5.13;;;3.35;;
43311;SDS011;30041;48.300;16.352;2023-07-20T01:42:18;5.97;;;3.38;;
43311;SDS011;30041;48.300;16.352;2023-07-20T01:44:44;5.22;;;3.53;;
43311;SDS011;30041;48.300;16.352;2023-07-20T01:47:09;6.20;;;3.75;;
43311;SDS011;30041;48.300;16.352;2023-07-20T01:49:35;5.38;;;3.10;;
43311;SDS011;30041;48.300;16.352;2023-07-20T01:52:01;5.13;;;3.58;;
43311;SDS011;30041;48.300;16.352;2023-07-20T01:54:26;5.10;;;3.85;;
43311;SDS011;30041;48.300;16.352;2023-07-20T01:56:51;5.78;;;3.67;;
43311;SDS011;30041;48.300;16.352;2023-07-20T01:59:17;5.70;;;3.70;;
43311;SDS011;30041;48.300;16.352;2023-07-20T02:01:45;4.57;;;3.17;;
43311;SDS011;30041;48.300;16.352;2023-07-20T02:04:10;4.75;;;3.40;;
43311;SDS011;30041;48.300;16.352;2023-07-20T02:06:36;6.80;;;3.63;;
43311;SDS011;30041;48.300;16.352;2023-07-20T02:09:01;6.03;;;3.83;;
43311;SDS011;30041;48.300;16.352;2023-07-20T02:11:27;5.55;;;3.83;;
43311;SDS011;30041;48.300;16.352;2023-07-20T02:13:55;7.90;;;3.67;;
43311;SDS011;30041;48.300;16.352;2023-07-20T02:16:21;5.70;;;3.75;;
43311;SDS011;30041;48.300;16.352;2023-07-20T02:18:46;5.82;;;3.80;;
43311;SDS011;30041;48.300;16.352;2023-07-20T02:21:12;6.97;;;3.63;;
43311;SDS011;30041;48.300;16.352;2023-07-20T02:23:38;5.00;;;3.53;;
43311;SDS011;30041;48.300;16.352;2023-07-20T02:26:03;7.13;;;4.05;;
43311;SDS011;30041;48.300;16.352;2023-07-20T02:28:28;5.10;;;3.40;;
43311;SDS011;30041;48.300;16.352;2023-07-20T02:30:54;5.20;;;4.00;;
43311;SDS011;30041;48.300;16.352;2023-07-20T02:33:19;6.25;;;3.80;;
43311;SDS011;30041;48.300;16.352;2023-07-20T02:35:45;5.72;;;3.65;;
43311;SDS011;30041;48.300;16.352;2023-07-20T02:38:10;5.13;;;3.70;;
43311;SDS011;30041;48.300;16.352;2023-07-20T02:40:36;6.32;;;3.60;;
43311;SDS011;30041;48.300;16.352;2023-07-20T02:43:01;5.28;;;3.70;;
43311;SDS011;30041;48.300;16.352;2023-07-20T02:45:27;5.93;;;3.22;;
43311;SDS011;30041;48.300;16.352;2023-07-20T02:47:52;4.80;;;3.45;;
43311;SDS011;30041;48.300;16.352;2023-07-20T02:50:18;5.18;;;3.72;;
43311;SDS011;30041;48.300;16.352;2023-07-20T02:52:46;5.40;;;3.85;;
43311;SDS011;30041;48.300;16.352;2023-07-20T02:55:12;4.65;;;3.60;;
43311;SDS011;30041;48.300;16.352;2023-07-20T02:57:37;5.50;;;3.90;;
43311;SDS011;30041;48.300;16.352;2023-07-20T03:00:03;6.10;;;3.67;;
43311;SDS011;30041;48.300;16.352;2023-07-20T03:02:29;5.63;;;3.47;;
43311;SDS011;30041;48.300;16.352;2023-07-20T03:04:55;5.60;;;3.92;;
43311;SDS011;30041;48.300;16.352;2023-07-20T03:07:20;4.60;;;4.03;;
43311;SDS011;30041;48.300;16.352;2023-07-20T03:09:46;5.35;;;3.20;;
43311;SDS011;30041;48.300;16.352;2023-07-20T03:12:11;5.82;;;3.67;;
43311;SDS011;30041;48.300;16.352;2023-07-20T03:14:37;4.68;;;3.03;;
43311;SDS011;30041;48.300;16.352;2023-07-20T03:17:02;5.38;;;3.80;;
43311;SDS011;30041;48.300;16.352;2023-07-20T03:19:28;6.25;;;3.10;;
43311;SDS011;30041;48.300;16.352;2023-07-20T03:21:53;5.63;;;3.33;;
43311;SDS011;30041;48.300;16.352;2023-07-20T03:24:19;5.47;;;3.20;;
43311;SDS011;30041;48.300;16.352;2023-07-20T03:26:44;4.78;;;3.40;;
43311;SDS011;30041;48.300;16.352;2023-07-20T03:29:10;5.03;;;3.53;;
43311;SDS011;30041;48.300;16.352;2023-07-20T03:31:35;4.60;;;3.30;;
43311;SDS011;30041;48.300;16.352;2023-07-20T03:34:00;5.60;;;3.47;;
43311;SDS011;30041;48.300;16.352;2023-07-20T03:36:26;4.05;;;2.97;;
43311;SDS011;30041;48.300;16.352;2023-07-20T03:38:51;6.28;;;3.40;;
43311;SDS011;30041;48.300;16.352;2023-07-20T03:41:17;5.53;;;3.50;;
43311;SDS011;30041;48.300;16.352;2023-07-20T03:43:42;4.75;;;3.42;;
43311;SDS011;30041;48.300;16.352;2023-07-20T03:46:08;8.35;;;3.75;;
43311;SDS011;30041;48.300;16.352;2023-07-20T03:48:33;5.97;;;3.95;;
43311;SDS011;30041;48.300;16.352;2023-07-20T03:50:59;7.97;;;4.10;;
43311;SDS011;30041;48.300;16.352;2023-07-20T03:53:24;5.57;;;4.00;;
43311;SDS011;30041;48.300;16.352;2023-07-20T03:55:51;7.18;;;4.03;;
43311;SDS011;30041;48.300;16.352;2023-07-20T03:58:18;5.57;;;3.47;;
43311;SDS011;30041;48.300;16.352;2023-07-20T04:00:45;5.88;;;3.78;;
43311;SDS011;30041;48.300;16.352;2023-07-20T04:03:14;6.05;;;3.80;;
43311;SDS011;30041;48.300;16.352;2023-07-20T04:05:39;6.50;;;3.78;;
43311;SDS011;30041;48.300;16.352;2023-07-20T04:08:05;10.77;;;3.63;;
43311;SDS011;30041;48.300;16.352;2023-07-20T04:10:31;6.60;;;3.58;;
43311;SDS011;30041;48.300;16.352;2023-07-20T04:12:56;8.82;;;3.42;;
43311;SDS011;30041;48.300;16.352;2023-07-20T04:15:21;8.60;;;3.80;;
43311;SDS011;30041;48.300;16.352;2023-07-20T04:17:47;7.93;;;3.80;;
43311;SDS011;30041;48.300;16.352;2023-07-20T04:20:12;7.63;;;3.70;;
43311;SDS011;30041;48.300;16.352;2023-07-20T04:22:38;5.13;;;3.53;;
43311;SDS011;30041;48.300;16.352;2023-07-20T04:25:04;10.07;;;3.88;;
43311;SDS011;30041;48.300;16.352;2023-07-20T04:27:30;6.55;;;3.42;;
43311;SDS011;30041;48.300;16.352;2023-07-20T04:29:55;6.57;;;3.60;;
43311;SDS011;30041;48.300;16.352;2023-07-20T04:32:22;5.53;;;3.58;;
43311;SDS011;30041;48.300;16.352;2023-07-20T04:34:48;5.55;;;3.45;;
43311;SDS011;30041;48.300;16.352;2023-07-20T04:37:13;7.85;;;3.85;;
43311;SDS011;30041;48.300;16.352;2023-07-20T04:39:42;7.95;;;3.60;;
43311;SDS011;30041;48.300;16.352;2023-07-20T04:42:07;8.88;;;4.32;;
43311;SDS011;30041;48.300;16.352;2023-07-20T04:44:33;6.63;;;3.60;;
43311;SDS011;30041;48.300;16.352;2023-07-20T04:46:58;6.15;;;4.03;;
43311;SDS011;30041;48.300;16.352;2023-07-20T04:49:24;6.82;;;3.60;;
43311;SDS011;30041;48.300;16.352;2023-07-20T04:51:49;12.73;;;4.22;;
43311;SDS011;30041;48.300;16.352;2023-07-20T04:54:18;6.68;;;4.00;;
43311;SDS011;30041;48.300;16.352;2023-07-20T04:56:43;6.78;;;4.10;;
43311;SDS011;30041;48.300;16.352;2023-07-20T04:59:09;8.00;;;4.18;;
43311;SDS011;30041;48.300;16.352;2023-07-20T05:01:37;9.27;;;4.15;;
43311;SDS011;30041;48.300;16.352;2023-07-20T05:04:03;8.63;;;4.25;;
43311;SDS011;30041;48.300;16.352;2023-07-20T05:06:28;8.55;;;4.40;;
43311;SDS011;30041;48.300;16.352;2023-07-20T05:08:54;8.80;;;4.05;;
43311;SDS011;30041;48.300;16.352;2023-07-20T05:11:19;8.82;;;4.13;;
43311;SDS011;30041;48.300;16.352;2023-07-20T05:13:45;9.45;;;4.10;;
43311;SDS011;30041;48.300;16.352;2023-07-20T05:16:10;7.55;;;4.30;;
43311;SDS011;30041;48.300;16.352;2023-07-20T05:18:38;8.38;;;3.97;;
43311;SDS011;30041;48.300;16.352;2023-07-20T05:21:05;8.65;;;4.20;;
43311;SDS011;30041;48.300;16.352;2023-07-20T05:23:31;6.47;;;4.18;;
43311;SDS011;30041;48.300;16.352;2023-07-20T05:25:57;4.60;;;3.55;;
43311;SDS011;30041;48.300;16.352;2023-07-20T05:28:24;7.15;;;4.20;;
43311;SDS011;30041;48.300;16.352;2023-07-20T05:30:50;6.95;;;4.30;;
43311;SDS011;30041;48.300;16.352;2023-07-20T05:33:16;7.10;;;3.70;;
43311;SDS011;30041;48.300;16.352;2023-07-20T05:35:41;10.90;;;4.25;;
43311;SDS011;30041;48.300;16.352;2023-07-20T05:38:07;5.75;;;4.00;;
43311;SDS011;30041;48.300;16.352;2023-07-20T05:40:32;8.20;;;4.07;;
43311;SDS011;30041;48.300;16.352;2023-07-20T05:42:58;7.25;;;4.10;;
43311;SDS011;30041;48.300;16.352;2023-07-20T05:45:23;7.18;;;3.88;;
43311;SDS011;30041;48.300;16.352;2023-07-20T05:47:49;8.43;;;4.20;;
43311;SDS011;30041;48.300;16.352;2023-07-20T05:50:15;8.13;;;3.90;;
43311;SDS011;30041;48.300;16.352;2023-07-20T05:52:40;6.65;;;3.80;;
43311;SDS011;30041;48.300;16.352;2023-07-20T05:55:08;6.93;;;4.10;;
43311;SDS011;30041;48.300;16.352;2023-07-20T05:57:34;6.32;;;3.70;;
43311;SDS011;30041;48.300;16.352;2023-07-20T05:59:59;8.02;;;3.45;;
43311;SDS011;30041;48.300;16.352;2023-07-20T06:02:25;6.82;;;3.63;;
43311;SDS011;30041;48.300;16.352;2023-07-20T06:04:50;5.60;;;3.38;;
43311;SDS011;30041;48.300;16.352;2023-07-20T06:07:16;6.25;;;3.75;;
43311;SDS011;30041;48.300;16.352;2023-07-20T06:09:41;6.03;;;3.53;;
43311;SDS011;30041;48.300;16.352;2023-07-20T06:12:07;5.03;;;3.58;;
43311;SDS011;30041;48.300;16.352;2023-07-20T06:14:33;7.00;;;3.40;;
43311;SDS011;30041;48.300;16.352;2023-07-20T06:16:59;7.78;;;3.70;;
43311;SDS011;30041;48.300;16.352;2023-07-20T06:19:25;7.13;;;3.60;;
43311;SDS011;30041;48.300;16.352;2023-07-20T06:21:50;6.28;;;3.70;;
43311;SDS011;30041;48.300;16.352;2023-07-20T06:24:18;7.18;;;3.50;;
43311;SDS011;30041;48.300;16.352;2023-07-20T06:26:44;4.95;;;3.60;;
43311;SDS011;30041;48.300;16.352;2023-07-20T06:29:09;5.63;;;3.58;;
43311;SDS011;30041;48.300;16.352;2023-07-20T06:31:35;5.50;;;3.75;;
43311;SDS011;30041;48.300;16.352;2023-07-20T06:34:01;4.80;;;3.28;;
43311;SDS011;30041;48.300;16.352;2023-07-20T06:36:27;4.30;;;3.47;;
43311;SDS011;30041;48.300;16.352;2023-07-20T06:38:55;6.78;;;3.80;;
43311;SDS011;30041;48.300;16.352;2023-07-20T06:41:21;6.95;;;3.60;;
43311;SDS011;30041;48.300;16.352;2023-07-20T06:43:49;4.90;;;3.20;;
43311;SDS011;30041;48.300;16.352;2023-07-20T06:46:15;5.40;;;3.00;;
43311;SDS011;30041;48.300;16.352;2023-07-20T06:48:41;4.30;;;3.40;;
43311;SDS011;30041;48.300;16.352;2023-07-20T06:51:06;5.53;;;3.38;;
43311;SDS011;30041;48.300;16.352;2023-07-20T06:53:32;5.63;;;3.75;;
43311;SDS011;30041;48.300;16.352;2023-07-20T06:55:57;5.13;;;3.83;;
43311;SDS011;30041;48.300;16.352;2023-07-20T06:58:23;5.15;;;3.60;;
43311;SDS011;30041;48.300;16.352;2023-07-20T07:00:49;6.00;;;3.33;;
43311;SDS011;30041;48.300;16.352;2023-07-20T07:03:15;6.30;;;3.40;;
43311;SDS011;30041;48.300;16.352;2023-07-20T07:05:41;10.10;;;3.63;;
43311;SDS011;30041;48.300;16.352;2023-07-20T07:08:06;7.25;;;3.40;;
43311;SDS011;30041;48.300;16.352;2023-07-20T07:10:34;4.47;;;3.00;;
43311;SDS011;30041;48.300;16.352;2023-07-20T07:13:00;4.82;;;3.10;;
43311;SDS011;30041;48.300;16.352;2023-07-20T07:15:26;4.55;;;3.22;;
43311;SDS011;30041;48.300;16.352;2023-07-20T07:17:51;5.07;;;2.70;;
43311;SDS011;30041;48.300;16.352;2023-07-20T07:20:17;5.13;;;3.13;;
43311;SDS011;30041;48.300;16.352;2023-07-20T07:22:42;3.92;;;2.95;;
43311;SDS011;30041;48.300;16.352;2023-07-20T07:25:08;5.80;;;3.22;;
43311;SDS011;30041;48.300;16.352;2023-07-20T07:27:34;3.85;;;2.80;;
43311;SDS011;30041;48.300;16.352;2023-07-20T07:30:00;9.27;;;3.10;;
43311;SDS011;30041;48.300;16.352;2023-07-20T07:32:25;4.13;;;2.80;;
43311;SDS011;30041;48.300;16.352;2023-07-20T07:34:51;4.97;;;2.85;;
43311;SDS011;30041;48.300;16.352;2023-07-20T07:37:16;5.18;;;3.22;;
43311;SDS011;30041;48.300;16.352;2023-07-20T07:39:42;6.70;;;3.00;;
43311;SDS011;30041;48.300;16.352;2023-07-20T07:42:07;3.75;;;2.67;;
43311;SDS011;30041;48.300;16.352;2023-07-20T07:44:33;3.63;;;2.78;;
43311;SDS011;30041;48.300;16.352;2023-07-20T07:46:58;3.63;;;2.80;;
43311;SDS011;30041;48.300;16.352;2023-07-20T07:49:24;5.63;;;2.90;;
43311;SDS011;30041;48.300;16.352;2023-07-20T07:51:50;5.63;;;2.97;;
43311;SDS011;30041;48.300;16.352;2023-07-20T07:54:15;3.85;;;2.60;;
43311;SDS011;30041;48.300;16.352;2023-07-20T07:56:43;5.85;;;2.83;;
43311;SDS011;30041;48.300;16.352;2023-07-20T07:59:08;4.28;;;2.67;;
43311;SDS011;30041;48.300;16.352;2023-07-20T08:01:34;7.53;;;2.90;;
43311;SDS011;30041;48.300;16.352;2023-07-20T08:03:59;4.82;;;3.03;;
43311;SDS011;30041;48.300;16.352;2023-07-20T08:06:25;4.63;;;2.88;;
43311;SDS011;30041;48.300;16.352;2023-07-20T08:08:53;4.88;;;2.88;;
43311;SDS011;30041;48.300;16.352;2023-07-20T08:11:18;4.68;;;2.60;;
43311;SDS011;30041;48.300;16.352;2023-07-20T08:13:43;3.92;;;2.63;;
43311;SDS011;30041;48.300;16.352;2023-07-20T08:16:09;3.88;;;2.83;;
43311;SDS011;30041;48.300;16.352;2023-07-20T08:18:35;5.28;;;2.88;;
43311;SDS011;30041;48.300;16.352;2023-07-20T08:21:00;5.20;;;2.72;;
43311;SDS011;30041;48.300;16.352;2023-07-20T08:23:26;4.78;;;2.78;;
43311;SDS011;30041;48.300;16.352;2023-07-20T08:25:51;4.68;;;2.92;;
43311;SDS011;30041;48.300;16.352;2023-07-20T08:28:17;4.32;;;2.72;;
43311;SDS011;30041;48.300;16.352;2023-07-20T08:30:46;5.68;;;2.70;;
43311;SDS011;30041;48.300;16.352;2023-07-20T08:33:16;4.68;;;2.70;;
43311;SDS011;30041;48.300;16.352;2023-07-20T08:35:43;5.22;;;2.83;;
43311;SDS011;30041;48.300;16.352;2023-07-20T08:38:08;5.53;;;2.92;;
43311;SDS011;30041;48.300;16.352;2023-07-20T08:40:38;6.30;;;2.90;;
43311;SDS011;30041;48.300;16.352;2023-07-20T08:43:05;5.95;;;2.80;;
43311;SDS011;30041;48.300;16.352;2023-07-20T08:45:32;4.65;;;2.90;;
43311;SDS011;30041;48.300;16.352;2023-07-20T08:47:59;5.80;;;2.80;;
43311;SDS011;30041;48.300;16.352;2023-07-20T08:50:26;5.13;;;2.85;;
43311;SDS011;30041;48.300;16.352;2023-07-20T08:52:55;5.22;;;2.50;;
43311;SDS011;30041;48.300;16.352;2023-07-20T08:55:22;3.72;;;2.47;;
43311;SDS011;30041;48.300;16.352;2023-07-20T08:57:55;3.83;;;2.30;;
43311;SDS011;30041;48.300;16.352;2023-07-20T09:00:23;4.47;;;2.80;;
43311;SDS011;30041;48.300;16.352;2023-07-20T09:02:50;4.18;;;2.80;;
43311;SDS011;30041;48.300;16.352;2023-07-20T09:05:18;4.82;;;2.45;;
43311;SDS011;30041;48.300;16.352;2023-07-20T09:07:44;5.68;;;2.53;;
43311;SDS011;30041;48.300;16.352;2023-07-20T09:10:10;3.60;;;2.70;;
43311;SDS011;30041;48.300;16.352;2023-07-20T09:12:37;3.90;;;2.78;;
43311;SDS011;30041;48.300;16.352;2023-07-20T09:15:04;3.75;;;2.50;;
43311;SDS011;30041;48.300;16.352;2023-07-20T09:17:30;5.82;;;2.35;;
43311;SDS011;30041;48.300;16.352;2023-07-20T09:19:56;4.05;;;2.47;;
43311;SDS011;30041;48.300;16.352;2023-07-20T09:22:21;4.25;;;2.33;;
43311;SDS011;30041;48.300;16.352;2023-07-20T09:24:47;5.45;;;2.58;;
43311;SDS011;30041;48.300;16.352;2023-07-20T09:27:13;2.80;;;2.03;;
43311;SDS011;30041;48.300;16.352;2023-07-20T09:29:48;3.55;;;2.38;;
43311;SDS011;30041;48.300;16.352;2023-07-20T09:32:17;3.63;;;2.35;;
43311;SDS011;30041;48.300;16.352;2023-07-20T09:34:44;3.88;;;2.60;;
43311;SDS011;30041;48.300;16.352;2023-07-20T09:37:10;4.45;;;2.65;;
43311;SDS011;30041;48.300;16.352;2023-07-20T09:39:42;4.13;;;2.58;;
43311;SDS011;30041;48.300;16.352;2023-07-20T09:42:13;5.28;;;2.40;;
43311;SDS011;30041;48.300;16.352;2023-07-20T09:44:39;4.53;;;2.42;;
43311;SDS011;30041;48.300;16.352;2023-07-20T09:47:08;6.40;;;2.53;;
43311;SDS011;30041;48.300;16.352;2023-07-20T09:49:38;7.78;;;3.20;;
43311;SDS011;30041;48.300;16.352;2023-07-20T09:52:05;7.03;;;3.90;;
43311;SDS011;30041;48.300;16.352;2023-07-20T09:54:33;6.43;;;3.22;;
43311;SDS011;30041;48.300;16.352;2023-07-20T09:56:59;6.20;;;3.55;;
43311;SDS011;30041;48.300;16.352;2023-07-20T09:59:27;5.60;;;3.17;;
43311;SDS011;30041;48.300;16.352;2023-07-20T10:01:53;5.50;;;3.00;;
43311;SDS011;30041;48.300;16.352;2023-07-20T10:04:24;5.53;;;3.00;;
43311;SDS011;30041;48.300;16.352;2023-07-20T10:06:51;6.60;;;3.10;;
43311;SDS011;30041;48.300;16.352;2023-07-20T10:09:19;6.05;;;3.33;;
43311;SDS011;30041;48.300;16.352;2023-07-20T10:11:49;6.85;;;3.40;;
43311;SDS011;30041;48.300;16.352;2023-07-20T10:14:16;7.20;;;4.07;;
43311;SDS011;30041;48.300;16.352;2023-07-20T10:16:46;7.30;;;4.90;;
43311;SDS011;30041;48.300;16.352;2023-07-20T10:21:48;7.15;;;4.55;;
43311;SDS011;30041;48.300;16.352;2023-07-20T10:24:21;7.03;;;4.80;;
43311;SDS011;30041;48.300;16.352;2023-07-20T10:26:48;10.52;;;4.57;;
43311;SDS011;30041;48.300;16.352;2023-07-20T10:29:18;7.77;;;4.57;;
43311;SDS011;30041;48.300;16.352;2023-07-20T10:31:44;10.00;;;5.13;;
43311;SDS011;30041;48.300;16.352;2023-07-20T10:34:10;16.90;;;5.40;;
43311;SDS011;30041;48.300;16.352;2023-07-20T10:36:43;9.82;;;5.75;;
43311;SDS011;30041;48.300;16.352;2023-07-20T10:39:13;9.82;;;6.72;;
43311;SDS011;30041;48.300;16.352;2023-07-20T10:41:48;9.07;;;6.60;;
43311;SDS011;30041;48.300;16.352;2023-07-20T10:44:19;6.43;;;4.60;;
43311;SDS011;30041;48.300;16.352;2023-07-20T10:46:46;11.02;;;5.50;;
43311;SDS011;30041;48.300;16.352;2023-07-20T10:49:12;9.73;;;6.93;;
43311;SDS011;30041;48.300;16.352;2023-07-20T10:51:39;10.93;;;7.97;;
43311;SDS011;30041;48.300;16.352;2023-07-20T10:56:43;9.13;;;8.00;;
43311;SDS011;30041;48.300;16.352;2023-07-20T10:59:18;7.93;;;6.13;;
43311;SDS011;30041;48.300;16.352;2023-07-20T11:02:00;9.63;;;7.45;;
43311;SDS011;30041;48.300;16.352;2023-07-20T11:04:41;5.95;;;5.05;;
43311;SDS011;30041;48.300;16.352;2023-07-20T11:07:08;6.85;;;4.82;;
43311;SDS011;30041;48.300;16.352;2023-07-20T11:09:34;7.72;;;3.90;;
43311;SDS011;30041;48.300;16.352;2023-07-20T11:12:14;7.30;;;3.40;;
43311;SDS011;30041;48.300;16.352;2023-07-20T11:14:41;5.07;;;3.45;;
43311;SDS011;30041;48.300;16.352;2023-07-20T11:17:14;5.63;;;3.45;;
43311;SDS011;30041;48.300;16.352;2023-07-20T11:19:40;9.32;;;3.08;;
43311;SDS011;30041;48.300;16.352;2023-07-20T11:22:07;4.22;;;2.88;;
43311;SDS011;30041;48.300;16.352;2023-07-20T11:24:33;5.22;;;2.78;;
43311;SDS011;30041;48.300;16.352;2023-07-20T11:26:58;7.43;;;2.70;;
43311;SDS011;30041;48.300;16.352;2023-07-20T11:29:25;6.15;;;2.85;;
43311;SDS011;30041;48.300;16.352;2023-07-20T11:31:51;4.68;;;2.40;;
43311;SDS011;30041;48.300;16.352;2023-07-20T11:34:17;4.78;;;2.40;;
43311;SDS011;30041;48.300;16.352;2023-07-20T11:36:44;3.90;;;2.40;;
43311;SDS011;30041;48.300;16.352;2023-07-20T11:39:13;4.68;;;2.53;;
43311;SDS011;30041;48.300;16.352;2023-07-20T11:41:43;3.88;;;2.33;;
43311;SDS011;30041;48.300;16.352;2023-07-20T11:44:22;5.57;;;2.63;;
43311;SDS011;30041;48.300;16.352;2023-07-20T11:46:51;5.78;;;2.80;;
43311;SDS011;30041;48.300;16.352;2023-07-20T11:49:24;6.50;;;2.80;;
43311;SDS011;30041;48.300;16.352;2023-07-20T11:51:50;5.75;;;2.35;;
43311;SDS011;30041;48.300;16.352;2023-07-20T11:54:15;4.60;;;2.20;;
43311;SDS011;30041;48.300;16.352;2023-07-20T11:56:41;5.07;;;2.35;;
43311;SDS011;30041;48.300;16.352;2023-07-20T11:59:07;8.73;;;2.40;;
43311;SDS011;30041;48.300;16.352;2023-07-20T12:01:33;6.35;;;2.25;;
43311;SDS011;30041;48.300;16.352;2023-07-20T12:03:59;4.57;;;2.30;;
43311;SDS011;30041;48.300;16.352;2023-07-20T12:06:25;3.92;;;2.30;;
43311;SDS011;30041;48.300;16.352;2023-07-20T12:08:54;5.38;;;2.22;;
43311;SDS011;30041;48.300;16.352;2023-07-20T12:11:35;5.32;;;2.10;;
43311;SDS011;30041;48.300;16.352;2023-07-20T12:14:02;9.55;;;2.33;;
43311;SDS011;30041;48.300;16.352;2023-07-20T12:16:29;4.82;;;2.25;;
43311;SDS011;30041;48.300;16.352;2023-07-20T12:21:30;5.30;;;2.40;;
43311;SDS011;30041;48.300;16.352;2023-07-20T12:23:57;7.03;;;2.30;;
43311;SDS011;30041;48.300;16.352;2023-07-20T12:26:23;5.60;;;2.35;;
43311;SDS011;30041;48.300;16.352;2023-07-20T12:28:49;3.75;;;2.00;;
43311;SDS011;30041;48.300;16.352;2023-07-20T12:31:15;3.55;;;2.00;;
43311;SDS011;30041;48.300;16.352;2023-07-20T12:33:50;5.37;;;2.27;;
43311;SDS011;30041;48.300;16.352;2023-07-20T12:36:16;5.40;;;2.45;;
43311;SDS011;30041;48.300;16.352;2023-07-20T12:38:42;3.53;;;1.90;;
43311;SDS011;30041;48.300;16.352;2023-07-20T12:41:09;3.63;;;2.08;;
43311;SDS011;30041;48.300;16.352;2023-07-20T12:43:35;5.80;;;2.03;;
43311;SDS011;30041;48.300;16.352;2023-07-20T12:46:01;4.22;;;1.92;;
43311;SDS011;30041;48.300;16.352;2023-07-20T12:48:28;4.40;;;1.85;;
43311;SDS011;30041;48.300;16.352;2023-07-20T12:50:54;4.03;;;2.05;;
43311;SDS011;30041;48.300;16.352;2023-07-20T12:53:20;5.15;;;1.83;;
43311;SDS011;30041;48.300;16.352;2023-07-20T12:55:45;7.30;;;1.85;;
43311;SDS011;30041;48.300;16.352;2023-07-20T12:58:11;5.18;;;2.10;;
43311;SDS011;30041;48.300;16.352;2023-07-20T13:00:37;4.63;;;1.60;;
43311;SDS011;30041;48.300;16.352;2023-07-20T13:03:02;2.97;;;1.70;;
43311;SDS011;30041;48.300;16.352;2023-07-20T13:05:28;3.00;;;1.60;;
43311;SDS011;30041;48.300;16.352;2023-07-20T13:07:53;3.50;;;1.88;;
43311;SDS011;30041;48.300;16.352;2023-07-20T13:10:19;4.05;;;1.80;;
43311;SDS011;30041;48.300;16.352;2023-07-20T13:12:44;3.15;;;1.70;;
43311;SDS011;30041;48.300;16.352;2023-07-20T13:15:10;3.70;;;1.83;;
43311;SDS011;30041;48.300;16.352;2023-07-20T13:17:36;6.68;;;2.30;;
43311;SDS011;30041;48.300;16.352;2023-07-20T13:20:03;4.95;;;2.95;;
43311;SDS011;30041;48.300;16.352;2023-07-20T13:22:30;4.35;;;2.38;;
43311;SDS011;30041;48.300;16.352;2023-07-20T13:24:56;6.68;;;2.47;;
43311;SDS011;30041;48.300;16.352;2023-07-20T13:27:22;4.47;;;3.35;;
43311;SDS011;30041;48.300;16.352;2023-07-20T13:29:47;4.53;;;2.30;;
43311;SDS011;30041;48.300;16.352;2023-07-20T13:32:13;3.22;;;2.22;;
43311;SDS011;30041;48.300;16.352;2023-07-20T13:34:39;3.85;;;2.00;;
43311;SDS011;30041;48.300;16.352;2023-07-20T13:37:05;4.18;;;2.60;;
43311;SDS011;30041;48.300;16.352;2023-07-20T13:39:30;5.03;;;2.30;;
43311;SDS011;30041;48.300;16.352;2023-07-20T13:41:56;3.42;;;2.40;;
43311;SDS011;30041;48.300;16.352;2023-07-20T13:44:22;4.18;;;2.33;;
43311;SDS011;30041;48.300;16.352;2023-07-20T13:46:48;6.20;;;3.13;;
43311;SDS011;30041;48.300;16.352;2023-07-20T13:49:14;4.00;;;3.20;;
43311;SDS011;30041;48.300;16.352;2023-07-20T13:51:41;5.05;;;2.90;;
43311;SDS011;30041;48.300;16.352;2023-07-20T13:54:07;6.18;;;3.85;;
43311;SDS011;30041;48.300;16.352;2023-07-20T13:56:33;7.80;;;3.20;;
43311;SDS011;30041;48.300;16.352;2023-07-20T13:58:58;5.57;;;3.30;;
43311;SDS011;30041;48.300;16.352;2023-07-20T14:01:24;5.97;;;4.47;;
43311;SDS011;30041;48.300;16.352;2023-07-20T14:03:50;4.85;;;4.35;;
43311;SDS011;30041;48.300;16.352;2023-07-20T14:06:16;5.30;;;4.25;;
43311;SDS011;30041;48.300;16.352;2023-07-20T14:08:42;6.45;;;5.00;;
43311;SDS011;30041;48.300;16.352;2023-07-20T14:11:07;9.25;;;6.60;;
43311;SDS011;30041;48.300;16.352;2023-07-20T14:13:33;8.05;;;4.80;;
43311;SDS011;30041;48.300;16.352;2023-07-20T14:15:58;6.90;;;5.60;;
43311;SDS011;30041;48.300;16.352;2023-07-20T14:18:24;7.95;;;5.75;;
43311;SDS011;30041;48.300;16.352;2023-07-20T14:20:49;8.00;;;5.63;;
43311;SDS011;30041;48.300;16.352;2023-07-20T14:23:15;4.88;;;4.10;;
43311;SDS011;30041;48.300;16.352;2023-07-20T14:25:41;8.80;;;4.40;;
43311;SDS011;30041;48.300;16.352;2023-07-20T14:28:07;7.88;;;3.90;;
43311;SDS011;30041;48.300;16.352;2023-07-20T14:30:33;7.50;;;4.68;;
43311;SDS011;30041;48.300;16.352;2023-07-20T14:32:58;5.55;;;3.60;;
43311;SDS011;30041;48.300;16.352;2023-07-20T14:35:24;7.18;;;3.60;;
43311;SDS011;30041;48.300;16.352;2023-07-20T14:37:49;5.78;;;3.15;;
43311;SDS011;30041;48.300;16.352;2023-07-20T14:40:15;4.03;;;3.30;;
43311;SDS011;30041;48.300;16.352;2023-07-20T14:42:40;4.68;;;3.00;;
43311;SDS011;30041;48.300;16.352;2023-07-20T14:45:06;4.10;;;2.78;;